sensor_id;sensor_type;location;lat;lon;timestamp;temperature;humidity
8595;DHT22;4335;48.860;9.198;2023-02-22T00:00:58;6.80;99.90
8595;DHT22;4335;48.860;9.198;2023-02-22T00:03:30;6.80;99.90
8595;DHT22;4335;48.860;9.198;2023-02-22T00:05:59;6.80;99.90
8595;DHT22;4335;48.860;9.198;2023-02-22T00:08:29;6.80;99.90
8595;DHT22;4335;48.860;9.198;2023-02-22T00:10:56;6.80;99.90
8595;DHT22;4335;48.860;9.198;2023-02-22T00:13:23;6.80;99.90
8595;DHT22;4335;48.860;9.198;2023-02-22T00:15:49;6.80;99.90
8595;DHT22;4335;48.860;9.198;2023-02-22T00:18:17;6.80;99.90
8595;DHT22;4335;48.860;9.198;2023-02-22T00:20:50;6.80;99.90
8595;DHT22;4335;48.860;9.198;2023-02-22T00:23:18;6.80;99.90
8595;DHT22;4335;48.860;9.198;2023-02-22T00:25:46;6.80;99.90
8595;DHT22;4335;48.860;9.198;2023-02-22T00:28:13;6.80;99.90
8595;DHT22;4335;48.860;9.198;2023-02-22T00:30:40;6.70;99.90
8595;DHT22;4335;48.860;9.198;2023-02-22T00:33:14;6.70;99.90
8595;DHT22;4335;48.860;9.198;2023-02-22T00:35:46;6.70;99.90
8595;DHT22;4335;48.860;9.198;2023-02-22T00:38:19;6.70;99.90
8595;DHT22;4335;48.860;9.198;2023-02-22T00:40:46;6.60;99.90
8595;DHT22;4335;48.860;9.198;2023-02-22T00:43:13;6.60;99.90
8595;DHT22;4335;48.860;9.198;2023-02-22T00:45:40;6.60;99.90
8595;DHT22;4335;48.860;9.198;2023-02-22T00:48:07;6.60;99.90
8595;DHT22;4335;48.860;9.198;2023-02-22T00:50:35;6.50;99.90
8595;DHT22;4335;48.860;9.198;2023-02-22T00:53:03;6.50;99.90
8595;DHT22;4335;48.860;9.198;2023-02-22T00:55:35;6.40;99.90
8595;DHT22;4335;48.860;9.198;2023-02-22T00:58:03;6.40;99.90
8595;DHT22;4335;48.860;9.198;2023-02-22T01:00:31;6.40;99.90
8595;DHT22;4335;48.860;9.198;2023-02-22T01:02:58;6.30;99.90
8595;DHT22;4335;48.860;9.198;2023-02-22T01:05:28;6.30;99.90
8595;DHT22;4335;48.860;9.198;2023-02-22T01:07:56;6.30;99.90
8595;DHT22;4335;48.860;9.198;2023-02-22T01:10:29;6.30;99.90
8595;DHT22;4335;48.860;9.198;2023-02-22T01:12:56;6.20;99.90
8595;DHT22;4335;48.860;9.198;2023-02-22T01:15:25;6.20;99.90
8595;DHT22;4335;48.860;9.198;2023-02-22T01:17:53;6.20;99.90
8595;DHT22;4335;48.860;9.198;2023-02-22T01:20:21;6.20;99.90
8595;DHT22;4335;48.860;9.198;2023-02-22T01:22:53;6.20;99.90
8595;DHT22;4335;48.860;9.198;2023-02-22T01:25:25;6.20;99.90
8595;DHT22;4335;48.860;9.198;2023-02-22T01:27:56;6.20;99.90
8595;DHT22;4335;48.860;9.198;2023-02-22T01:30:25;6.20;99.90
8595;DHT22;4335;48.860;9.198;2023-02-22T01:32:53;6.20;99.90
8595;DHT22;4335;48.860;9.198;2023-02-22T01:35:21;6.20;99.90
8595;DHT22;4335;48.860;9.198;2023-02-22T01:37:48;6.20;99.90
8595;DHT22;4335;48.860;9.198;2023-02-22T01:40:17;6.20;99.90
8595;DHT22;4335;48.860;9.198;2023-02-22T01:42:47;6.20;99.90
8595;DHT22;4335;48.860;9.198;2023-02-22T01:45:44;6.20;99.90
8595;DHT22;4335;48.860;9.198;2023-02-22T01:48:16;6.20;99.90
8595;DHT22;4335;48.860;9.198;2023-02-22T01:50:49;6.20;99.90
8595;DHT22;4335;48.860;9.198;2023-02-22T01:53:20;6.20;99.90
8595;DHT22;4335;48.860;9.198;2023-02-22T01:55:51;6.10;99.90
8595;DHT22;4335;48.860;9.198;2023-02-22T01:58:25;6.10;99.90
8595;DHT22;4335;48.860;9.198;2023-02-22T02:00:54;6.10;99.90
8595;DHT22;4335;48.860;9.198;2023-02-22T02:03:25;6.00;99.90
8595;DHT22;4335;48.860;9.198;2023-02-22T02:06:00;6.00;99.90
8595;DHT22;4335;48.860;9.198;2023-02-22T02:08:34;5.90;99.90
8595;DHT22;4335;48.860;9.198;2023-02-22T02:11:04;5.90;99.90
8595;DHT22;4335;48.860;9.198;2023-02-22T02:13:33;5.90;99.90
8595;DHT22;4335;48.860;9.198;2023-02-22T02:16:01;5.80;99.90
8595;DHT22;4335;48.860;9.198;2023-02-22T02:18:28;5.80;99.90
8595;DHT22;4335;48.860;9.198;2023-02-22T02:21:27;5.80;99.90
8595;DHT22;4335;48.860;9.198;2023-02-22T02:27:10;5.80;99.90
8595;DHT22;4335;48.860;9.198;2023-02-22T02:32:55;5.80;99.90
8595;DHT22;4335;48.860;9.198;2023-02-22T02:35:34;5.80;99.90
8595;DHT22;4335;48.860;9.198;2023-02-22T02:38:09;5.80;99.90
8595;DHT22;4335;48.860;9.198;2023-02-22T02:40:46;5.80;99.90
8595;DHT22;4335;48.860;9.198;2023-02-22T02:43:19;5.80;99.90
8595;DHT22;4335;48.860;9.198;2023-02-22T02:45:52;5.70;99.90
8595;DHT22;4335;48.860;9.198;2023-02-22T02:48:24;5.70;99.90
8595;DHT22;4335;48.860;9.198;2023-02-22T02:50:52;5.70;99.90
8595;DHT22;4335;48.860;9.198;2023-02-22T02:53:21;5.70;99.90
8595;DHT22;4335;48.860;9.198;2023-02-22T02:55:51;5.70;99.90
8595;DHT22;4335;48.860;9.198;2023-02-22T02:58:20;5.70;99.90
8595;DHT22;4335;48.860;9.198;2023-02-22T03:00:48;5.60;99.90
8595;DHT22;4335;48.860;9.198;2023-02-22T03:03:39;5.60;99.90
8595;DHT22;4335;48.860;9.198;2023-02-22T03:06:30;5.60;99.90
8595;DHT22;4335;48.860;9.198;2023-02-22T03:09:10;5.60;99.90
8595;DHT22;4335;48.860;9.198;2023-02-22T03:11:48;5.60;99.90
8595;DHT22;4335;48.860;9.198;2023-02-22T03:14:22;5.60;99.90
8595;DHT22;4335;48.860;9.198;2023-02-22T03:16:59;5.60;99.90
8595;DHT22;4335;48.860;9.198;2023-02-22T03:19:32;5.60;99.90
8595;DHT22;4335;48.860;9.198;2023-02-22T03:22:04;5.50;99.90
8595;DHT22;4335;48.860;9.198;2023-02-22T03:24:46;5.60;99.90
8595;DHT22;4335;48.860;9.198;2023-02-22T03:27:22;5.60;99.90
8595;DHT22;4335;48.860;9.198;2023-02-22T03:29:54;5.60;99.90
8595;DHT22;4335;48.860;9.198;2023-02-22T03:32:24;5.50;99.90
8595;DHT22;4335;48.860;9.198;2023-02-22T03:34:57;5.50;99.90
8595;DHT22;4335;48.860;9.198;2023-02-22T03:37:28;5.50;99.90
8595;DHT22;4335;48.860;9.198;2023-02-22T03:39:55;5.40;99.90
8595;DHT22;4335;48.860;9.198;2023-02-22T03:42:30;5.40;99.90
8595;DHT22;4335;48.860;9.198;2023-02-22T03:45:02;5.40;99.90
8595;DHT22;4335;48.860;9.198;2023-02-22T03:47:34;5.30;99.90
8595;DHT22;4335;48.860;9.198;2023-02-22T03:50:11;5.40;99.90
8595;DHT22;4335;48.860;9.198;2023-02-22T03:52:40;5.30;99.90
8595;DHT22;4335;48.860;9.198;2023-02-22T03:55:09;5.30;99.90
8595;DHT22;4335;48.860;9.198;2023-02-22T03:57:39;5.30;99.90
8595;DHT22;4335;48.860;9.198;2023-02-22T04:00:12;5.30;99.90
8595;DHT22;4335;48.860;9.198;2023-02-22T04:02:40;5.20;99.90
8595;DHT22;4335;48.860;9.198;2023-02-22T04:05:08;5.30;99.90
8595;DHT22;4335;48.860;9.198;2023-02-22T04:07:37;5.20;99.90
8595;DHT22;4335;48.860;9.198;2023-02-22T04:10:04;5.20;99.90
8595;DHT22;4335;48.860;9.198;2023-02-22T04:12:36;5.20;99.90
8595;DHT22;4335;48.860;9.198;2023-02-22T04:15:12;5.30;99.90
8595;DHT22;4335;48.860;9.198;2023-02-22T04:17:40;5.30;99.90
8595;DHT22;4335;48.860;9.198;2023-02-22T04:20:08;5.40;99.90
8595;DHT22;4335;48.860;9.198;2023-02-22T04:22:38;5.40;99.90
8595;DHT22;4335;48.860;9.198;2023-02-22T04:25:05;5.40;99.90
8595;DHT22;4335;48.860;9.198;2023-02-22T04:27:35;5.40;99.90
8595;DHT22;4335;48.860;9.198;2023-02-22T04:30:01;5.40;99.90
8595;DHT22;4335;48.860;9.198;2023-02-22T04:32:31;5.40;99.90
8595;DHT22;4335;48.860;9.198;2023-02-22T04:34:58;5.40;99.90
8595;DHT22;4335;48.860;9.198;2023-02-22T04:37:31;5.40;99.90
8595;DHT22;4335;48.860;9.198;2023-02-22T04:40:04;5.40;99.90
8595;DHT22;4335;48.860;9.198;2023-02-22T04:42:32;5.40;99.90
8595;DHT22;4335;48.860;9.198;2023-02-22T04:45:02;5.40;99.90
8595;DHT22;4335;48.860;9.198;2023-02-22T04:47:29;5.30;99.90
8595;DHT22;4335;48.860;9.198;2023-02-22T04:49:56;5.30;99.90
8595;DHT22;4335;48.860;9.198;2023-02-22T04:52:25;5.30;99.90
8595;DHT22;4335;48.860;9.198;2023-02-22T04:54:53;5.30;99.90
8595;DHT22;4335;48.860;9.198;2023-02-22T04:57:26;5.30;99.90
8595;DHT22;4335;48.860;9.198;2023-02-22T04:59:53;5.40;99.90
8595;DHT22;4335;48.860;9.198;2023-02-22T05:02:19;5.30;99.90
8595;DHT22;4335;48.860;9.198;2023-02-22T05:04:49;5.40;99.90
8595;DHT22;4335;48.860;9.198;2023-02-22T05:07:16;5.30;99.90
8595;DHT22;4335;48.860;9.198;2023-02-22T05:09:43;5.30;99.90
8595;DHT22;4335;48.860;9.198;2023-02-22T05:12:10;5.30;99.90
8595;DHT22;4335;48.860;9.198;2023-02-22T05:14:43;5.20;99.90
8595;DHT22;4335;48.860;9.198;2023-02-22T05:17:13;5.30;99.90
8595;DHT22;4335;48.860;9.198;2023-02-22T05:19:39;5.30;99.90
8595;DHT22;4335;48.860;9.198;2023-02-22T05:22:07;5.30;99.90
8595;DHT22;4335;48.860;9.198;2023-02-22T05:24:34;5.20;99.90
8595;DHT22;4335;48.860;9.198;2023-02-22T05:27:03;5.20;99.90
8595;DHT22;4335;48.860;9.198;2023-02-22T05:29:31;5.20;99.90
8595;DHT22;4335;48.860;9.198;2023-02-22T05:31:57;5.20;99.90
8595;DHT22;4335;48.860;9.198;2023-02-22T05:34:24;5.20;99.90
8595;DHT22;4335;48.860;9.198;2023-02-22T05:36:54;5.20;99.90
8595;DHT22;4335;48.860;9.198;2023-02-22T05:39:21;5.20;99.90
8595;DHT22;4335;48.860;9.198;2023-02-22T05:41:47;5.20;99.90
8595;DHT22;4335;48.860;9.198;2023-02-22T05:44:14;5.20;99.90
8595;DHT22;4335;48.860;9.198;2023-02-22T05:46:41;5.20;99.90
8595;DHT22;4335;48.860;9.198;2023-02-22T05:49:08;5.10;99.90
8595;DHT22;4335;48.860;9.198;2023-02-22T05:51:35;5.10;99.90
8595;DHT22;4335;48.860;9.198;2023-02-22T05:54:07;5.10;99.90
8595;DHT22;4335;48.860;9.198;2023-02-22T05:56:34;5.10;99.90
8595;DHT22;4335;48.860;9.198;2023-02-22T05:59:01;5.10;99.90
8595;DHT22;4335;48.860;9.198;2023-02-22T06:01:28;5.10;99.90
8595;DHT22;4335;48.860;9.198;2023-02-22T06:03:55;5.10;99.90
8595;DHT22;4335;48.860;9.198;2023-02-22T06:06:22;5.10;99.90
8595;DHT22;4335;48.860;9.198;2023-02-22T06:08:49;5.10;99.90
8595;DHT22;4335;48.860;9.198;2023-02-22T06:11:18;5.10;99.90
8595;DHT22;4335;48.860;9.198;2023-02-22T06:13:48;5.10;99.90
8595;DHT22;4335;48.860;9.198;2023-02-22T06:16:15;5.10;99.90
8595;DHT22;4335;48.860;9.198;2023-02-22T06:18:42;5.30;99.90
8595;DHT22;4335;48.860;9.198;2023-02-22T06:21:10;5.20;99.90
8595;DHT22;4335;48.860;9.198;2023-02-22T06:23:36;5.20;99.90
8595;DHT22;4335;48.860;9.198;2023-02-22T06:26:03;5.20;99.90
8595;DHT22;4335;48.860;9.198;2023-02-22T06:28:33;5.20;99.90
8595;DHT22;4335;48.860;9.198;2023-02-22T06:31:00;5.20;99.90
8595;DHT22;4335;48.860;9.198;2023-02-22T06:33:26;5.20;99.90
8595;DHT22;4335;48.860;9.198;2023-02-22T06:35:56;5.20;99.90
8595;DHT22;4335;48.860;9.198;2023-02-22T06:38:26;5.30;99.90
8595;DHT22;4335;48.860;9.198;2023-02-22T06:40:53;5.30;99.90
8595;DHT22;4335;48.860;9.198;2023-02-22T06:43:20;5.40;99.90
8595;DHT22;4335;48.860;9.198;2023-02-22T06:45:47;5.40;99.90
8595;DHT22;4335;48.860;9.198;2023-02-22T06:48:20;5.50;99.90
8595;DHT22;4335;48.860;9.198;2023-02-22T06:50:47;5.50;99.90
8595;DHT22;4335;48.860;9.198;2023-02-22T06:53:13;5.60;99.90
8595;DHT22;4335;48.860;9.198;2023-02-22T06:55:44;5.70;99.90
8595;DHT22;4335;48.860;9.198;2023-02-22T06:58:15;5.80;99.90
8595;DHT22;4335;48.860;9.198;2023-02-22T07:00:42;5.90;99.90
8595;DHT22;4335;48.860;9.198;2023-02-22T07:03:10;6.00;99.90
8595;DHT22;4335;48.860;9.198;2023-02-22T07:05:39;6.10;99.90
8595;DHT22;4335;48.860;9.198;2023-02-22T07:08:12;6.20;99.90
8595;DHT22;4335;48.860;9.198;2023-02-22T07:10:39;6.30;99.90
8595;DHT22;4335;48.860;9.198;2023-02-22T07:13:17;6.40;99.90
8595;DHT22;4335;48.860;9.198;2023-02-22T07:15:49;6.60;99.90
8595;DHT22;4335;48.860;9.198;2023-02-22T07:18:15;6.60;99.90
8595;DHT22;4335;48.860;9.198;2023-02-22T07:20:42;6.60;99.90
8595;DHT22;4335;48.860;9.198;2023-02-22T07:23:08;6.70;99.90
8595;DHT22;4335;48.860;9.198;2023-02-22T07:25:35;6.80;99.90
8595;DHT22;4335;48.860;9.198;2023-02-22T07:28:02;6.80;99.90
8595;DHT22;4335;48.860;9.198;2023-02-22T07:30:31;6.80;99.90
8595;DHT22;4335;48.860;9.198;2023-02-22T07:32:59;6.80;99.90
8595;DHT22;4335;48.860;9.198;2023-02-22T07:35:28;6.90;99.90
8595;DHT22;4335;48.860;9.198;2023-02-22T07:37:55;7.00;99.90
8595;DHT22;4335;48.860;9.198;2023-02-22T07:40:23;7.00;99.90
8595;DHT22;4335;48.860;9.198;2023-02-22T07:42:53;7.10;99.90
8595;DHT22;4335;48.860;9.198;2023-02-22T07:45:27;7.10;99.90
8595;DHT22;4335;48.860;9.198;2023-02-22T07:48:04;7.10;99.90
8595;DHT22;4335;48.860;9.198;2023-02-22T07:50:31;7.20;99.90
8595;DHT22;4335;48.860;9.198;2023-02-22T07:53:01;7.20;99.90
8595;DHT22;4335;48.860;9.198;2023-02-22T07:55:30;7.30;99.90
8595;DHT22;4335;48.860;9.198;2023-02-22T07:57:58;7.30;99.90
8595;DHT22;4335;48.860;9.198;2023-02-22T08:00:27;7.30;99.90
8595;DHT22;4335;48.860;9.198;2023-02-22T08:02:58;7.30;99.90
8595;DHT22;4335;48.860;9.198;2023-02-22T08:05:25;7.40;99.90
8595;DHT22;4335;48.860;9.198;2023-02-22T08:07:52;7.50;99.90
8595;DHT22;4335;48.860;9.198;2023-02-22T08:10:21;7.50;99.90
8595;DHT22;4335;48.860;9.198;2023-02-22T08:12:49;7.70;99.90
8595;DHT22;4335;48.860;9.198;2023-02-22T08:15:18;7.80;99.90
8595;DHT22;4335;48.860;9.198;2023-02-22T08:17:48;7.80;99.90
8595;DHT22;4335;48.860;9.198;2023-02-22T08:20:16;7.80;99.90
8595;DHT22;4335;48.860;9.198;2023-02-22T08:22:43;8.00;99.90
8595;DHT22;4335;48.860;9.198;2023-02-22T08:25:10;8.00;99.90
8595;DHT22;4335;48.860;9.198;2023-02-22T08:27:37;8.10;99.90
8595;DHT22;4335;48.860;9.198;2023-02-22T08:30:05;8.20;99.90
8595;DHT22;4335;48.860;9.198;2023-02-22T08:32:35;8.30;99.90
8595;DHT22;4335;48.860;9.198;2023-02-22T08:35:02;8.40;99.90
8595;DHT22;4335;48.860;9.198;2023-02-22T08:37:32;8.50;99.90
8595;DHT22;4335;48.860;9.198;2023-02-22T08:39:59;8.60;99.90
8595;DHT22;4335;48.860;9.198;2023-02-22T08:42:25;8.70;99.90
8595;DHT22;4335;48.860;9.198;2023-02-22T08:44:52;8.70;99.90
8595;DHT22;4335;48.860;9.198;2023-02-22T08:47:19;8.80;99.90
8595;DHT22;4335;48.860;9.198;2023-02-22T08:49:48;8.90;99.90
8595;DHT22;4335;48.860;9.198;2023-02-22T08:52:19;9.00;99.90
8595;DHT22;4335;48.860;9.198;2023-02-22T08:54:47;9.00;99.90
8595;DHT22;4335;48.860;9.198;2023-02-22T08:57:14;9.10;99.90
8595;DHT22;4335;48.860;9.198;2023-02-22T08:59:40;9.10;99.90
8595;DHT22;4335;48.860;9.198;2023-02-22T09:02:13;9.20;99.90
8595;DHT22;4335;48.860;9.198;2023-02-22T09:04:41;9.20;99.90
8595;DHT22;4335;48.860;9.198;2023-02-22T09:07:08;9.20;99.90
8595;DHT22;4335;48.860;9.198;2023-02-22T09:09:37;9.30;99.90
8595;DHT22;4335;48.860;9.198;2023-02-22T09:12:05;9.30;99.90
8595;DHT22;4335;48.860;9.198;2023-02-22T09:14:34;9.30;99.90
8595;DHT22;4335;48.860;9.198;2023-02-22T09:17:11;9.30;99.90
8595;DHT22;4335;48.860;9.198;2023-02-22T09:19:37;9.30;99.90
8595;DHT22;4335;48.860;9.198;2023-02-22T09:22:04;9.30;99.90
8595;DHT22;4335;48.860;9.198;2023-02-22T09:24:34;9.40;99.90
8595;DHT22;4335;48.860;9.198;2023-02-22T09:27:08;9.40;99.90
8595;DHT22;4335;48.860;9.198;2023-02-22T09:29:36;9.50;99.90
8595;DHT22;4335;48.860;9.198;2023-02-22T09:32:07;9.60;99.90
8595;DHT22;4335;48.860;9.198;2023-02-22T09:34:34;9.70;99.90
8595;DHT22;4335;48.860;9.198;2023-02-22T09:37:00;9.80;99.90
8595;DHT22;4335;48.860;9.198;2023-02-22T09:39:27;9.90;99.90
8595;DHT22;4335;48.860;9.198;2023-02-22T09:42:02;10.00;99.90
8595;DHT22;4335;48.860;9.198;2023-02-22T09:44:39;10.10;99.90
8595;DHT22;4335;48.860;9.198;2023-02-22T09:47:13;10.20;99.90
8595;DHT22;4335;48.860;9.198;2023-02-22T09:49:48;10.40;99.90
8595;DHT22;4335;48.860;9.198;2023-02-22T09:52:24;10.50;99.90
8595;DHT22;4335;48.860;9.198;2023-02-22T09:54:59;10.80;99.90
8595;DHT22;4335;48.860;9.198;2023-02-22T09:57:32;10.80;99.90
8595;DHT22;4335;48.860;9.198;2023-02-22T10:00:03;10.90;99.90
8595;DHT22;4335;48.860;9.198;2023-02-22T10:02:39;11.00;99.90
8595;DHT22;4335;48.860;9.198;2023-02-22T10:05:14;11.20;99.90
8595;DHT22;4335;48.860;9.198;2023-02-22T10:07:46;11.20;99.90
8595;DHT22;4335;48.860;9.198;2023-02-22T10:10:17;11.40;99.90
8595;DHT22;4335;48.860;9.198;2023-02-22T10:12:48;11.50;99.90
8595;DHT22;4335;48.860;9.198;2023-02-22T10:15:41;11.60;99.90
8595;DHT22;4335;48.860;9.198;2023-02-22T10:21:21;12.00;99.90
8595;DHT22;4335;48.860;9.198;2023-02-22T10:23:57;12.30;99.90
8595;DHT22;4335;48.860;9.198;2023-02-22T10:26:32;13.00;99.90
8595;DHT22;4335;48.860;9.198;2023-02-22T10:29:06;13.90;99.90
8595;DHT22;4335;48.860;9.198;2023-02-22T10:31:41;14.70;99.90
8595;DHT22;4335;48.860;9.198;2023-02-22T10:34:14;15.10;99.90
8595;DHT22;4335;48.860;9.198;2023-02-22T10:36:42;15.10;99.90
8595;DHT22;4335;48.860;9.198;2023-02-22T10:39:27;15.20;99.90
8595;DHT22;4335;48.860;9.198;2023-02-22T10:42:04;15.20;99.90
8595;DHT22;4335;48.860;9.198;2023-02-22T10:44:36;15.00;99.90
8595;DHT22;4335;48.860;9.198;2023-02-22T10:47:06;14.80;99.90
8595;DHT22;4335;48.860;9.198;2023-02-22T10:49:36;14.40;99.90
8595;DHT22;4335;48.860;9.198;2023-02-22T10:52:12;14.10;99.90
8595;DHT22;4335;48.860;9.198;2023-02-22T10:54:40;14.10;99.90
8595;DHT22;4335;48.860;9.198;2023-02-22T10:57:09;14.50;99.90
8595;DHT22;4335;48.860;9.198;2023-02-22T10:59:39;15.40;99.90
8595;DHT22;4335;48.860;9.198;2023-02-22T11:02:17;16.50;99.90
8595;DHT22;4335;48.860;9.198;2023-02-22T11:04:49;17.90;99.90
8595;DHT22;4335;48.860;9.198;2023-02-22T11:07:20;19.60;99.90
8595;DHT22;4335;48.860;9.198;2023-02-22T11:09:49;20.60;99.90
8595;DHT22;4335;48.860;9.198;2023-02-22T11:12:19;20.50;99.20
8595;DHT22;4335;48.860;9.198;2023-02-22T11:14:47;20.40;98.50
8595;DHT22;4335;48.860;9.198;2023-02-22T11:17:20;19.70;98.90
8595;DHT22;4335;48.860;9.198;2023-02-22T11:19:50;19.10;99.50
8595;DHT22;4335;48.860;9.198;2023-02-22T11:22:25;17.90;99.90
8595;DHT22;4335;48.860;9.198;2023-02-22T11:24:58;17.70;99.90
8595;DHT22;4335;48.860;9.198;2023-02-22T11:27:35;17.40;99.90
8595;DHT22;4335;48.860;9.198;2023-02-22T11:30:19;16.80;99.90
8595;DHT22;4335;48.860;9.198;2023-02-22T11:32:49;16.20;99.90
8595;DHT22;4335;48.860;9.198;2023-02-22T11:35:36;16.00;99.90
8595;DHT22;4335;48.860;9.198;2023-02-22T11:38:15;15.80;99.90
8595;DHT22;4335;48.860;9.198;2023-02-22T11:40:42;15.20;99.90
8595;DHT22;4335;48.860;9.198;2023-02-22T11:43:15;14.90;99.90
8595;DHT22;4335;48.860;9.198;2023-02-22T11:45:57;14.90;99.90
8595;DHT22;4335;48.860;9.198;2023-02-22T11:48:53;14.90;99.90
8595;DHT22;4335;48.860;9.198;2023-02-22T11:51:51;14.60;99.90
8595;DHT22;4335;48.860;9.198;2023-02-22T11:54:44;14.80;99.90
8595;DHT22;4335;48.860;9.198;2023-02-22T11:57:37;14.80;99.90
8595;DHT22;4335;48.860;9.198;2023-02-22T12:00:24;14.70;99.90
8595;DHT22;4335;48.860;9.198;2023-02-22T12:03:08;14.80;99.90
8595;DHT22;4335;48.860;9.198;2023-02-22T12:05:48;14.70;99.90
8595;DHT22;4335;48.860;9.198;2023-02-22T12:08:32;14.50;99.90
8595;DHT22;4335;48.860;9.198;2023-02-22T12:11:08;14.70;99.90
8595;DHT22;4335;48.860;9.198;2023-02-22T12:13:50;14.60;99.90
8595;DHT22;4335;48.860;9.198;2023-02-22T12:16:27;14.60;99.90
8595;DHT22;4335;48.860;9.198;2023-02-22T12:19:18;14.70;99.90
8595;DHT22;4335;48.860;9.198;2023-02-22T12:21:55;14.40;99.90
8595;DHT22;4335;48.860;9.198;2023-02-22T12:24:24;14.30;99.90
8595;DHT22;4335;48.860;9.198;2023-02-22T12:26:55;14.20;99.90
8595;DHT22;4335;48.860;9.198;2023-02-22T12:29:32;14.10;99.90
8595;DHT22;4335;48.860;9.198;2023-02-22T12:32:06;14.00;99.90
8595;DHT22;4335;48.860;9.198;2023-02-22T12:34:37;13.90;99.90
8595;DHT22;4335;48.860;9.198;2023-02-22T12:37:15;14.00;99.90
8595;DHT22;4335;48.860;9.198;2023-02-22T12:39:55;14.00;99.90
8595;DHT22;4335;48.860;9.198;2023-02-22T12:42:31;14.10;99.90
8595;DHT22;4335;48.860;9.198;2023-02-22T12:45:03;14.10;99.90
8595;DHT22;4335;48.860;9.198;2023-02-22T12:47:39;14.00;99.90
8595;DHT22;4335;48.860;9.198;2023-02-22T12:50:16;14.00;99.90
8595;DHT22;4335;48.860;9.198;2023-02-22T12:52:46;13.90;99.90
8595;DHT22;4335;48.860;9.198;2023-02-22T12:55:23;14.20;99.90
8595;DHT22;4335;48.860;9.198;2023-02-22T12:57:58;14.30;99.90
8595;DHT22;4335;48.860;9.198;2023-02-22T13:00:41;14.40;99.90
8595;DHT22;4335;48.860;9.198;2023-02-22T13:03:35;14.50;99.90
8595;DHT22;4335;48.860;9.198;2023-02-22T13:06:30;14.50;99.90
8595;DHT22;4335;48.860;9.198;2023-02-22T13:09:39;14.40;99.90
8595;DHT22;4335;48.860;9.198;2023-02-22T13:12:15;14.70;99.90
8595;DHT22;4335;48.860;9.198;2023-02-22T13:14:57;14.80;99.90
8595;DHT22;4335;48.860;9.198;2023-02-22T13:17:38;14.70;99.90
8595;DHT22;4335;48.860;9.198;2023-02-22T13:20:13;14.70;99.90
8595;DHT22;4335;48.860;9.198;2023-02-22T13:22:48;14.60;99.90
8595;DHT22;4335;48.860;9.198;2023-02-22T13:25:21;14.60;99.90
8595;DHT22;4335;48.860;9.198;2023-02-22T13:27:54;14.60;99.90
8595;DHT22;4335;48.860;9.198;2023-02-22T13:30:30;14.50;99.90
8595;DHT22;4335;48.860;9.198;2023-02-22T13:33:15;14.60;99.90
8595;DHT22;4335;48.860;9.198;2023-02-22T13:39:10;14.40;99.90
8595;DHT22;4335;48.860;9.198;2023-02-22T13:42:13;14.40;99.90
8595;DHT22;4335;48.860;9.198;2023-02-22T13:51:15;14.00;99.90
8595;DHT22;4335;48.860;9.198;2023-02-22T13:53:51;13.90;99.90
8595;DHT22;4335;48.860;9.198;2023-02-22T13:56:21;13.90;99.90
8595;DHT22;4335;48.860;9.198;2023-02-22T13:58:53;13.90;99.90
8595;DHT22;4335;48.860;9.198;2023-02-22T14:01:43;13.90;99.90
8595;DHT22;4335;48.860;9.198;2023-02-22T14:10:04;13.70;99.90
8595;DHT22;4335;48.860;9.198;2023-02-22T14:12:47;13.70;99.90
8595;DHT22;4335;48.860;9.198;2023-02-22T14:15:18;13.70;99.90
8595;DHT22;4335;48.860;9.198;2023-02-22T14:17:47;13.60;99.90
8595;DHT22;4335;48.860;9.198;2023-02-22T14:20:24;13.60;99.90
8595;DHT22;4335;48.860;9.198;2023-02-22T14:23:25;13.60;99.90
8595;DHT22;4335;48.860;9.198;2023-02-22T14:25:54;13.60;99.90
8595;DHT22;4335;48.860;9.198;2023-02-22T14:28:52;13.60;99.90
8595;DHT22;4335;48.860;9.198;2023-02-22T14:31:21;13.60;99.90
8595;DHT22;4335;48.860;9.198;2023-02-22T14:34:00;13.60;99.90
8595;DHT22;4335;48.860;9.198;2023-02-22T14:36:37;13.60;99.90
8595;DHT22;4335;48.860;9.198;2023-02-22T14:39:22;13.60;99.90
8595;DHT22;4335;48.860;9.198;2023-02-22T14:41:55;13.60;99.90
8595;DHT22;4335;48.860;9.198;2023-02-22T14:44:26;13.60;99.90
8595;DHT22;4335;48.860;9.198;2023-02-22T14:46:59;13.60;99.90
8595;DHT22;4335;48.860;9.198;2023-02-22T14:49:33;13.50;99.90
8595;DHT22;4335;48.860;9.198;2023-02-22T14:52:06;13.60;99.90
8595;DHT22;4335;48.860;9.198;2023-02-22T14:54:55;13.60;99.90
8595;DHT22;4335;48.860;9.198;2023-02-22T14:57:30;13.70;99.90
8595;DHT22;4335;48.860;9.198;2023-02-22T15:00:12;13.60;99.90
8595;DHT22;4335;48.860;9.198;2023-02-22T15:02:47;13.70;99.90
8595;DHT22;4335;48.860;9.198;2023-02-22T15:05:18;13.70;99.90
8595;DHT22;4335;48.860;9.198;2023-02-22T15:07:54;13.60;99.90
8595;DHT22;4335;48.860;9.198;2023-02-22T15:10:27;13.50;99.90
8595;DHT22;4335;48.860;9.198;2023-02-22T15:12:57;13.50;99.90
8595;DHT22;4335;48.860;9.198;2023-02-22T15:15:34;13.50;99.90
8595;DHT22;4335;48.860;9.198;2023-02-22T15:18:03;13.50;99.90
8595;DHT22;4335;48.860;9.198;2023-02-22T15:20:33;13.40;99.90
8595;DHT22;4335;48.860;9.198;2023-02-22T15:23:01;13.40;99.90
8595;DHT22;4335;48.860;9.198;2023-02-22T15:25:29;13.40;99.90
8595;DHT22;4335;48.860;9.198;2023-02-22T15:28:00;13.40;99.90
8595;DHT22;4335;48.860;9.198;2023-02-22T15:30:29;13.30;99.90
8595;DHT22;4335;48.860;9.198;2023-02-22T15:33:16;13.30;99.90
8595;DHT22;4335;48.860;9.198;2023-02-22T15:35:43;13.20;99.90
8595;DHT22;4335;48.860;9.198;2023-02-22T15:38:28;13.30;99.90
8595;DHT22;4335;48.860;9.198;2023-02-22T15:41:00;13.20;99.90
8595;DHT22;4335;48.860;9.198;2023-02-22T15:43:27;13.20;99.90
8595;DHT22;4335;48.860;9.198;2023-02-22T15:45:58;13.10;99.90
8595;DHT22;4335;48.860;9.198;2023-02-22T15:48:26;13.10;99.90
8595;DHT22;4335;48.860;9.198;2023-02-22T15:51:02;13.10;99.90
8595;DHT22;4335;48.860;9.198;2023-02-22T15:53:39;13.20;99.90
8595;DHT22;4335;48.860;9.198;2023-02-22T15:56:11;13.10;99.90
8595;DHT22;4335;48.860;9.198;2023-02-22T15:58:44;13.10;99.90
8595;DHT22;4335;48.860;9.198;2023-02-22T16:01:13;13.10;99.90
8595;DHT22;4335;48.860;9.198;2023-02-22T16:03:45;13.00;99.90
8595;DHT22;4335;48.860;9.198;2023-02-22T16:06:26;13.00;99.90
8595;DHT22;4335;48.860;9.198;2023-02-22T16:09:06;12.90;99.90
8595;DHT22;4335;48.860;9.198;2023-02-22T16:11:38;12.90;99.90
8595;DHT22;4335;48.860;9.198;2023-02-22T16:14:25;12.90;99.90
8595;DHT22;4335;48.860;9.198;2023-02-22T16:17:11;12.80;99.90
8595;DHT22;4335;48.860;9.198;2023-02-22T16:19:42;12.80;99.90
8595;DHT22;4335;48.860;9.198;2023-02-22T16:22:25;12.80;99.90
8595;DHT22;4335;48.860;9.198;2023-02-22T16:24:52;12.70;99.90
8595;DHT22;4335;48.860;9.198;2023-02-22T16:27:22;12.70;99.90
8595;DHT22;4335;48.860;9.198;2023-02-22T16:30:07;12.70;99.90
8595;DHT22;4335;48.860;9.198;2023-02-22T16:32:34;12.60;99.90
8595;DHT22;4335;48.860;9.198;2023-02-22T16:35:01;12.60;99.90
8595;DHT22;4335;48.860;9.198;2023-02-22T16:37:31;12.60;99.90
8595;DHT22;4335;48.860;9.198;2023-02-22T16:39:58;12.60;99.90
8595;DHT22;4335;48.860;9.198;2023-02-22T16:42:24;12.50;99.90
8595;DHT22;4335;48.860;9.198;2023-02-22T16:44:57;12.50;99.90
8595;DHT22;4335;48.860;9.198;2023-02-22T16:47:24;12.50;99.90
8595;DHT22;4335;48.860;9.198;2023-02-22T16:49:54;12.40;99.90
8595;DHT22;4335;48.860;9.198;2023-02-22T16:52:22;12.40;99.90
8595;DHT22;4335;48.860;9.198;2023-02-22T16:54:52;12.30;99.90
8595;DHT22;4335;48.860;9.198;2023-02-22T16:57:20;12.30;99.90
8595;DHT22;4335;48.860;9.198;2023-02-22T16:59:48;12.20;99.90
8595;DHT22;4335;48.860;9.198;2023-02-22T17:02:17;12.10;99.90
8595;DHT22;4335;48.860;9.198;2023-02-22T17:04:47;12.10;99.90
8595;DHT22;4335;48.860;9.198;2023-02-22T17:07:16;12.10;99.90
8595;DHT22;4335;48.860;9.198;2023-02-22T17:09:44;12.00;99.90